Time,TemperatureF,DewpointF,PressureIn,WindDirection,WindDirectionDegrees,WindSpeedMPH,WindSpeedGustMPH,Humidity,HourlyPrecipIn,Conditions,Clouds,dailyrainin,SoftwareType,DateUTC
2013-06-11 00:00:00,65.7,65.3,29.76,NW,315,0.0,0.0,99,0.00,,,1.00,meteohub,2013-06-11 04:00:00,
2013-06-11 00:01:00,65.7,65.3,29.77,NW,315,0.0,0.0,99,0.00,,,1.00,meteohub,2013-06-11 04:01:00,
2013-06-11 00:02:00,65.7,65.3,29.76,NW,315,0.0,0.0,99,0.00,,,1.00,meteohub,2013-06-11 04:02:00,
2013-06-11 00:03:00,65.7,65.3,29.76,NW,315,0.0,0.0,99,0.00,,,1.00,meteohub,2013-06-11 04:03:00,
2013-06-11 00:04:00,65.7,65.3,29.76,NW,315,0.0,0.0,99,0.00,,,1.00,meteohub,2013-06-11 04:04:00,
2013-06-11 00:09:00,65.8,65.5,29.77,North,0,0.0,0.0,99,0.00,,,0.00,meteohub,2013-06-11 04:09:00,
2013-06-11 00:14:00,65.8,65.5,29.77,NW,315,0.0,0.0,99,0.00,,,0.00,meteohub,2013-06-11 04:14:00,
2013-06-11 00:19:00,65.8,65.5,29.77,North,0,0.0,0.0,99,0.00,,,0.00,meteohub,2013-06-11 04:19:00,
2013-06-11 00:24:00,65.7,65.3,29.77,North,0,0.0,0.0,99,0.00,,,0.00,meteohub,2013-06-11 04:24:00,
2013-06-11 00:29:00,65.7,65.3,29.77,North,0,0.0,0.0,99,0.00,,,0.00,meteohub,2013-06-11 04:29:00,
2013-06-11 00:34:00,65.5,65.1,29.77,North,0,0.0,0.0,99,0.00,,,0.00,meteohub,2013-06-11 04:34:00,
2013-06-11 00:40:00,65.3,64.9,29.77,NE,45,0.0,0.0,99,0.00,,,0.00,meteohub,2013-06-11 04:40:00,
2013-06-11 00:45:00,65.3,64.9,29.78,NW,315,0.0,0.0,99,0.00,,,0.00,meteohub,2013-06-11 04:45:00,
2013-06-11 00:50:00,65.1,64.8,29.78,North,0,0.0,0.0,99,0.00,,,0.00,meteohub,2013-06-11 04:50:00,
2013-06-11 00:55:00,65.1,64.8,29.78,North,0,0.0,0.0,99,0.00,,,0.00,meteohub,2013-06-11 04:55:00,
2013-06-11 01:00:00,65.1,64.8,29.78,North,0,0.0,0.0,99,0.00,,,0.00,meteohub,2013-06-11 05:00:00,
2013-06-11 01:05:00,64.9,64.6,29.78,North,0,0.0,0.0,99,0.00,,,0.00,meteohub,2013-06-11 05:05:00,
2013-06-11 01:11:00,64.9,64.6,29.78,North,0,0.0,0.0,99,0.00,,,0.00,meteohub,2013-06-11 05:11:00,
2013-06-11 01:16:00,64.9,64.6,29.78,North,0,0.0,0.0,99,0.00,,,0.00,meteohub,2013-06-11 05:16:00,
2013-06-11 01:21:00,64.8,64.4,29.78,North,0,0.0,0.0,99,0.00,,,0.00,meteohub,2013-06-11 05:21:00,
2013-06-11 01:26:00,64.8,64.4,29.78,North,0,0.0,0.0,99,0.00,,,0.00,meteohub,2013-06-11 05:26:00,
2013-06-11 01:31:00,64.8,64.4,29.78,NE,45,0.0,0.0,99,0.00,,,0.00,meteohub,2013-06-11 05:31:00,
2013-06-11 01:37:00,64.6,64.2,29.78,North,0,0.0,0.0,99,0.00,,,0.00,meteohub,2013-06-11 05:37:00,
2013-06-11 01:42:00,64.6,64.2,29.78,North,0,0.0,2.0,99,0.00,,,0.00,meteohub,2013-06-11 05:42:00,
2013-06-11 01:47:00,64.6,64.2,29.78,NW,315,0.0,2.0,99,0.00,,,0.00,meteohub,2013-06-11 05:47:00,
2013-06-11 01:52:00,64.6,64.2,29.78,North,0,0.0,2.0,99,0.00,,,0.00,meteohub,2013-06-11 05:52:00,
2013-06-11 01:57:00,64.4,64.0,29.78,North,0,0.0,0.0,99,0.00,,,0.00,meteohub,2013-06-11 05:57:00,
2013-06-11 02:02:00,64.4,64.0,29.79,North,0,0.0,0.0,99,0.00,,,0.00,meteohub,2013-06-11 06:02:00,
2013-06-11 02:07:00,64.4,64.0,29.78,North,0,0.0,0.0,99,0.00,,,0.00,meteohub,2013-06-11 06:07:00,
2013-06-11 02:12:00,64.2,63.3,29.78,North,0,0.0,0.0,97,0.00,,,0.00,meteohub,2013-06-11 06:12:00,
2013-06-11 02:17:00,64.2,63.3,29.78,North,0,0.0,0.0,97,0.00,,,0.00,meteohub,2013-06-11 06:17:00,
2013-06-11 02:22:00,64.2,63.3,29.78,North,0,0.0,0.0,97,0.00,,,0.00,meteohub,2013-06-11 06:22:00,
2013-06-11 02:27:00,64.2,63.3,29.78,North,0,0.0,0.0,97,0.00,,,0.00,meteohub,2013-06-11 06:27:00,
2013-06-11 02:32:00,64.2,63.3,29.78,North,0,0.0,0.0,97,0.00,,,0.00,meteohub,2013-06-11 06:32:00,
2013-06-11 02:37:00,64.2,63.3,29.79,North,0,0.0,0.0,97,0.00,,,0.00,meteohub,2013-06-11 06:37:00,
2013-06-11 02:42:00,64.2,63.3,29.78,NW,315,0.0,0.0,97,0.00,,,0.00,meteohub,2013-06-11 06:42:00,
2013-06-11 02:47:00,64.2,63.3,29.79,NW,315,0.0,0.0,97,0.00,,,0.00,meteohub,2013-06-11 06:47:00,
2013-06-11 02:52:00,64.2,63.3,29.79,North,0,0.0,0.0,97,0.00,,,0.00,meteohub,2013-06-11 06:52:00,
2013-06-11 02:58:00,64.0,63.1,29.79,NW,315,0.0,0.0,97,0.00,,,0.00,meteohub,2013-06-11 06:58:00,
2013-06-11 03:03:00,64.0,63.1,29.79,NW,315,0.0,0.0,97,0.00,,,0.00,meteohub,2013-06-11 07:03:00,
2013-06-11 03:08:00,64.0,63.1,29.79,NW,315,0.0,0.0,97,0.00,,,0.00,meteohub,2013-06-11 07:08:00,
2013-06-11 03:13:00,64.0,63.1,29.80,NW,315,0.0,0.0,97,0.00,,,0.00,meteohub,2013-06-11 07:13:00,
2013-06-11 03:18:00,64.0,63.1,29.80,NW,315,0.0,0.0,97,0.00,,,0.00,meteohub,2013-06-11 07:18:00,
2013-06-11 03:23:00,64.0,63.1,29.80,NW,315,0.0,0.0,97,0.00,,,0.00,meteohub,2013-06-11 07:23:00,
2013-06-11 03:28:00,64.0,63.1,29.80,NW,315,0.0,0.0,97,0.00,,,0.00,meteohub,2013-06-11 07:28:00,
2013-06-11 03:33:00,64.0,63.1,29.80,NW,315,0.0,0.0,97,0.00,,,0.00,meteohub,2013-06-11 07:33:00,
2013-06-11 03:38:00,64.0,63.1,29.80,NW,315,0.0,0.0,97,0.00,,,0.00,meteohub,2013-06-11 07:38:00,
2013-06-11 03:44:00,64.0,63.1,29.80,NW,315,0.0,0.0,97,0.00,,,0.00,meteohub,2013-06-11 07:44:00,
2013-06-11 03:49:00,64.0,63.1,29.80,NW,315,0.0,0.0,97,0.00,,,0.00,meteohub,2013-06-11 07:49:00,
2013-06-11 03:54:00,64.0,63.1,29.80,North,0,0.0,0.0,97,0.00,,,0.00,meteohub,2013-06-11 07:54:00,
2013-06-11 03:59:00,64.0,63.1,29.80,North,0,0.0,0.0,97,0.00,,,0.00,meteohub,2013-06-11 07:59:00,
2013-06-11 04:04:00,64.0,63.1,29.80,North,0,0.0,0.0,97,0.00,,,0.00,meteohub,2013-06-11 08:04:00,
2013-06-11 04:09:00,64.0,63.1,29.80,NW,315,0.0,0.0,97,0.00,,,0.00,meteohub,2013-06-11 08:09:00,
2013-06-11 04:15:00,64.0,63.1,29.80,NW,315,0.0,0.0,97,0.00,,,0.00,meteohub,2013-06-11 08:15:00,
2013-06-11 04:20:00,64.0,63.1,29.80,NW,315,0.0,0.0,97,0.00,,,0.00,meteohub,2013-06-11 08:20:00,
2013-06-11 04:25:00,64.0,63.1,29.80,NW,315,0.0,0.0,97,0.00,,,0.00,meteohub,2013-06-11 08:25:00,
2013-06-11 04:30:00,64.0,63.1,29.80,NW,315,0.0,0.0,97,0.00,,,0.00,meteohub,2013-06-11 08:30:00,
2013-06-11 04:35:00,64.0,63.1,29.80,NW,315,0.0,0.0,97,0.00,,,0.00,meteohub,2013-06-11 08:35:00,
2013-06-11 04:40:00,64.0,63.1,29.80,NW,315,0.0,0.0,97,0.00,,,0.00,meteohub,2013-06-11 08:40:00,
2013-06-11 04:46:00,64.0,63.1,29.81,NW,315,0.0,0.0,97,0.00,,,0.00,meteohub,2013-06-11 08:46:00,
2013-06-11 04:51:00,64.0,63.1,29.81,NW,315,0.0,0.0,97,0.00,,,0.00,meteohub,2013-06-11 08:51:00,
2013-06-11 04:57:00,64.0,63.1,29.81,NW,315,0.0,0.0,97,0.00,,,0.00,meteohub,2013-06-11 08:57:00,
2013-06-11 05:02:00,64.0,63.1,29.81,NW,315,0.0,0.0,97,0.00,,,0.00,meteohub,2013-06-11 09:02:00,
2013-06-11 05:07:00,64.0,63.1,29.81,West,270,0.0,0.0,97,0.00,,,0.00,meteohub,2013-06-11 09:07:00,
2013-06-11 05:12:00,64.0,63.1,29.81,NW,315,0.0,0.0,97,0.00,,,0.00,meteohub,2013-06-11 09:12:00,
2013-06-11 05:17:00,64.0,63.1,29.81,NW,315,0.0,0.0,97,0.00,,,0.00,meteohub,2013-06-11 09:17:00,
2013-06-11 05:22:00,63.9,63.0,29.82,NW,315,0.0,0.0,97,0.00,,,0.00,meteohub,2013-06-11 09:22:00,
2013-06-11 05:27:00,63.9,63.0,29.82,NW,315,0.0,0.0,97,0.00,,,0.00,meteohub,2013-06-11 09:27:00,
2013-06-11 05:32:00,63.9,63.0,29.82,NW,315,0.0,0.0,97,0.00,,,0.00,meteohub,2013-06-11 09:32:00,
2013-06-11 05:37:00,63.7,62.8,29.83,NW,315,0.0,0.0,97,0.00,,,0.00,meteohub,2013-06-11 09:37:00,
2013-06-11 05:42:00,63.7,62.8,29.83,NW,315,0.0,0.0,97,0.00,,,0.00,meteohub,2013-06-11 09:42:00,
2013-06-11 05:47:00,63.7,62.8,29.83,NW,315,0.0,0.0,97,0.00,,,0.00,meteohub,2013-06-11 09:47:00,
2013-06-11 05:53:00,63.7,62.8,29.83,South,180,0.0,0.0,97,0.00,,,0.00,meteohub,2013-06-11 09:53:00,
2013-06-11 05:58:00,63.7,62.8,29.83,SW,225,0.0,0.0,97,0.00,,,0.00,meteohub,2013-06-11 09:58:00,
2013-06-11 06:03:00,63.7,62.8,29.83,SW,225,0.0,0.0,97,0.00,,,0.00,meteohub,2013-06-11 10:03:00,
2013-06-11 06:08:00,63.7,62.8,29.83,SW,225,0.0,0.0,97,0.00,,,0.00,meteohub,2013-06-11 10:08:00,
2013-06-11 06:13:00,63.7,62.8,29.83,SW,225,0.0,0.0,97,0.00,,,0.00,meteohub,2013-06-11 10:13:00,
2013-06-11 06:18:00,63.7,62.8,29.83,SW,225,0.0,0.0,97,0.00,,,0.00,meteohub,2013-06-11 10:18:00,
2013-06-11 06:24:00,63.7,62.8,29.83,SW,225,0.0,0.0,97,0.00,,,0.00,meteohub,2013-06-11 10:24:00,
2013-06-11 06:29:00,63.7,62.8,29.82,SW,225,0.0,0.0,97,0.00,,,0.00,meteohub,2013-06-11 10:29:00,
2013-06-11 06:34:00,63.7,62.8,29.83,SW,225,0.0,0.0,97,0.00,,,0.00,meteohub,2013-06-11 10:34:00,
2013-06-11 06:39:00,63.7,62.8,29.83,SW,225,0.0,0.0,97,0.00,,,0.00,meteohub,2013-06-11 10:39:00,
2013-06-11 06:44:00,63.7,62.8,29.84,SW,225,0.0,0.0,97,0.00,,,0.00,meteohub,2013-06-11 10:44:00,
2013-06-11 06:50:00,63.7,62.8,29.84,SW,225,0.0,0.0,97,0.00,,,0.00,meteohub,2013-06-11 10:50:00,
2013-06-11 06:55:00,63.5,62.6,29.84,SW,225,0.0,0.0,97,0.00,,,0.00,meteohub,2013-06-11 10:55:00,
2013-06-11 07:00:00,63.5,62.6,29.84,SW,225,0.0,0.0,97,0.00,,,0.00,meteohub,2013-06-11 11:00:00,
2013-06-11 07:05:00,63.5,62.6,29.85,North,0,0.0,0.0,97,0.00,,,0.00,meteohub,2013-06-11 11:05:00,
2013-06-11 07:10:00,63.7,62.8,29.85,North,0,0.0,0.0,97,0.00,,,0.00,meteohub,2013-06-11 11:10:00,
2013-06-11 07:15:00,63.7,62.8,29.85,West,270,0.0,0.0,97,0.00,,,0.00,meteohub,2013-06-11 11:15:00,
2013-06-11 07:20:00,63.9,63.0,29.85,West,270,0.0,0.0,97,0.00,,,0.00,meteohub,2013-06-11 11:20:00,
2013-06-11 07:26:00,63.9,63.0,29.85,SW,225,0.0,0.0,97,0.00,,,0.00,meteohub,2013-06-11 11:26:00,
2013-06-11 07:31:00,64.0,63.1,29.85,West,270,0.0,0.0,97,0.00,,,0.00,meteohub,2013-06-11 11:31:00,
2013-06-11 07:36:00,64.0,63.1,29.85,North,0,0.0,0.0,97,0.00,,,0.00,meteohub,2013-06-11 11:36:00,
2013-06-11 07:42:00,64.0,63.1,29.85,NE,45,0.0,0.0,97,0.00,,,0.00,meteohub,2013-06-11 11:42:00,
2013-06-11 07:47:00,64.0,63.1,29.86,NE,45,0.0,0.0,97,0.00,,,0.00,meteohub,2013-06-11 11:47:00,
2013-06-11 07:52:00,64.2,63.3,29.86,NE,45,0.0,0.0,97,0.00,,,0.00,meteohub,2013-06-11 11:52:00,
2013-06-11 07:57:00,64.2,63.3,29.85,North,0,0.0,0.0,97,0.00,,,0.00,meteohub,2013-06-11 11:57:00,
2013-06-11 08:02:00,64.2,63.3,29.85,West,270,0.0,0.0,97,0.00,,,0.00,meteohub,2013-06-11 12:02:00,
2013-06-11 08:07:00,64.2,63.3,29.85,West,270,0.0,0.0,97,0.00,,,0.00,meteohub,2013-06-11 12:07:00,
2013-06-11 08:12:00,64.4,64.0,29.86,North,0,0.0,0.0,99,0.00,,,0.00,meteohub,2013-06-11 12:12:00,
2013-06-11 08:17:00,64.4,64.0,29.86,SW,225,0.0,0.0,99,0.00,,,0.00,meteohub,2013-06-11 12:17:00,
2013-06-11 08:22:00,64.6,64.2,29.86,West,270,0.0,0.0,99,0.00,,,0.00,meteohub,2013-06-11 12:22:00,
2013-06-11 08:27:00,64.6,64.2,29.86,SW,225,0.0,0.0,99,0.00,,,0.00,meteohub,2013-06-11 12:27:00,
2013-06-11 08:32:00,64.8,64.4,29.86,NW,315,0.0,0.0,99,0.00,,,0.00,meteohub,2013-06-11 12:32:00,
2013-06-11 08:37:00,64.9,64.6,29.86,NW,315,0.0,0.0,99,0.00,,,0.00,meteohub,2013-06-11 12:37:00,
2013-06-11 08:42:00,65.1,64.8,29.86,NW,315,0.0,0.0,99,0.00,,,0.00,meteohub,2013-06-11 12:42:00,
2013-06-11 08:47:00,65.1,64.8,29.86,North,0,0.0,0.0,99,0.00,,,0.00,meteohub,2013-06-11 12:47:00,
2013-06-11 08:53:00,65.3,64.9,29.86,North,0,0.0,2.0,99,0.00,,,0.00,meteohub,2013-06-11 12:53:00,
2013-06-11 08:58:00,65.5,65.1,29.87,NE,45,0.0,2.0,99,0.00,,,0.00,meteohub,2013-06-11 12:58:00,
2013-06-11 09:03:00,65.7,65.3,29.87,West,270,0.0,2.0,99,0.00,,,0.00,meteohub,2013-06-11 13:03:00,
2013-06-11 09:08:00,65.8,65.5,29.86,NW,315,0.0,2.0,99,0.00,,,0.00,meteohub,2013-06-11 13:08:00,
2013-06-11 09:13:00,66.0,65.7,29.87,North,0,0.0,2.0,99,0.00,,,0.00,meteohub,2013-06-11 13:13:00,
2013-06-11 09:18:00,66.0,65.7,29.86,West,270,0.0,0.0,99,0.00,,,0.00,meteohub,2013-06-11 13:18:00,
2013-06-11 09:24:00,66.0,65.7,29.87,North,0,0.0,2.0,99,0.00,,,0.00,meteohub,2013-06-11 13:24:00,
2013-06-11 09:29:00,66.4,66.0,29.87,West,270,0.0,2.0,99,0.00,,,0.00,meteohub,2013-06-11 13:29:00,
2013-06-11 09:34:00,66.9,66.6,29.87,North,0,0.0,1.0,99,0.00,,,0.00,meteohub,2013-06-11 13:34:00,
2013-06-11 09:39:00,67.3,66.9,29.87,SW,225,2.0,0.0,99,0.00,,,0.00,meteohub,2013-06-11 13:39:00,
2013-06-11 09:44:00,67.5,67.1,29.87,NW,315,0.0,0.0,99,0.00,,,0.00,meteohub,2013-06-11 13:44:00,
2013-06-11 09:49:00,67.5,67.1,29.87,South,180,0.0,2.0,99,0.00,,,0.00,meteohub,2013-06-11 13:49:00,
2013-06-11 09:54:00,67.1,66.7,29.88,NW,315,1.0,2.0,99,0.00,,,0.00,meteohub,2013-06-11 13:54:00,
2013-06-11 09:59:00,66.9,66.6,29.87,West,270,0.0,1.0,99,0.00,,,0.00,meteohub,2013-06-11 13:59:00,
2013-06-11 10:05:00,67.1,66.7,29.87,SW,225,2.0,3.0,99,0.00,,,0.00,meteohub,2013-06-11 14:05:00,
2013-06-11 10:10:00,67.6,67.3,29.87,NE,45,0.0,3.0,99,0.00,,,0.00,meteohub,2013-06-11 14:10:00,
2013-06-11 10:15:00,68.4,67.8,29.88,NW,315,0.0,3.0,98,0.01,,,0.01,meteohub,2013-06-11 14:15:00,
2013-06-11 10:20:00,68.7,67.5,29.88,NW,315,0.0,3.0,96,0.01,,,0.01,meteohub,2013-06-11 14:20:00,
2013-06-11 10:25:00,68.5,67.1,29.88,North,0,0.0,0.0,95,0.01,,,0.01,meteohub,2013-06-11 14:25:00,
2013-06-11 10:30:00,68.9,67.1,29.88,SW,225,3.0,3.0,94,0.01,,,0.01,meteohub,2013-06-11 14:30:00,
2013-06-11 10:36:00,69.1,66.9,29.88,North,0,4.0,4.0,93,0.01,,,0.01,meteohub,2013-06-11 14:36:00,
2013-06-11 10:41:00,69.3,66.6,29.88,NW,315,0.0,4.0,91,0.01,,,0.01,meteohub,2013-06-11 14:41:00,
2013-06-11 10:46:00,69.3,65.8,29.88,North,0,0.0,4.0,89,0.01,,,0.01,meteohub,2013-06-11 14:46:00,
2013-06-11 10:51:00,69.4,66.0,29.88,WNW,293,0.0,4.0,89,0.01,,,0.01,meteohub,2013-06-11 14:51:00,
2013-06-11 10:56:00,69.4,65.7,29.88,NW,315,0.0,4.0,88,0.01,,,0.01,meteohub,2013-06-11 14:56:00,
2013-06-11 11:02:00,69.3,65.3,29.88,North,0,0.0,4.0,87,0.01,,,0.01,meteohub,2013-06-11 15:02:00,
2013-06-11 11:07:00,69.4,65.5,29.88,NW,315,0.0,4.0,87,0.01,,,0.01,meteohub,2013-06-11 15:07:00,
2013-06-11 11:12:00,69.8,65.5,29.88,North,0,4.0,4.0,86,0.01,,,0.01,meteohub,2013-06-11 15:12:00,
2013-06-11 11:17:00,70.2,65.5,29.88,NE,45,0.0,4.0,85,0.00,,,0.01,meteohub,2013-06-11 15:17:00,
2013-06-11 11:22:00,70.7,66.0,29.88,NW,315,0.0,4.0,85,0.00,,,0.01,meteohub,2013-06-11 15:22:00,
2013-06-11 11:27:00,70.9,66.2,29.88,North,0,2.0,4.0,85,0.00,,,0.01,meteohub,2013-06-11 15:27:00,
2013-06-11 11:32:00,71.2,66.2,29.88,North,0,2.0,3.0,84,0.00,,,0.01,meteohub,2013-06-11 15:32:00,
2013-06-11 11:37:00,71.6,65.8,29.88,North,0,0.0,3.0,82,0.00,,,0.01,meteohub,2013-06-11 15:37:00,
2013-06-11 11:42:00,72.1,66.4,29.88,SW,225,4.0,4.0,82,0.00,,,0.01,meteohub,2013-06-11 15:42:00,
2013-06-11 11:48:00,72.3,66.2,29.88,NW,315,0.0,4.0,81,0.00,,,0.01,meteohub,2013-06-11 15:48:00,
2013-06-11 11:53:00,72.5,66.4,29.88,NW,315,4.0,4.0,81,0.00,,,0.01,meteohub,2013-06-11 15:53:00,
2013-06-11 11:58:00,72.7,65.1,29.88,North,0,2.0,4.0,77,0.00,,,0.01,meteohub,2013-06-11 15:58:00,
2013-06-11 12:03:00,73.0,65.5,29.88,North,0,2.0,4.0,77,0.00,,,0.01,meteohub,2013-06-11 16:03:00,
2013-06-11 12:08:00,73.6,66.4,29.89,North,0,3.0,4.0,78,0.00,,,0.01,meteohub,2013-06-11 16:08:00,
2013-06-11 12:13:00,73.8,66.0,29.89,SW,225,3.0,4.0,77,0.00,,,0.01,meteohub,2013-06-11 16:13:00,
2013-06-11 12:19:00,74.5,66.7,29.89,North,0,2.0,4.0,77,0.00,,,0.01,meteohub,2013-06-11 16:19:00,
2013-06-11 12:24:00,74.8,66.7,29.89,North,0,4.0,4.0,76,0.00,,,0.01,meteohub,2013-06-11 16:24:00,
2013-06-11 12:29:00,74.8,66.4,29.89,NE,45,2.0,4.0,75,0.00,,,0.01,meteohub,2013-06-11 16:29:00,
2013-06-11 12:34:00,74.8,66.7,29.89,North,0,2.0,4.0,76,0.00,,,0.01,meteohub,2013-06-11 16:34:00,
2013-06-11 12:39:00,75.2,66.4,29.89,NW,315,2.0,4.0,74,0.00,,,0.01,meteohub,2013-06-11 16:39:00,
2013-06-11 12:44:00,75.6,66.7,29.88,SW,225,2.0,4.0,74,0.00,,,0.01,meteohub,2013-06-11 16:44:00,
2013-06-11 12:49:00,75.7,66.9,29.88,NW,315,2.0,4.0,74,0.00,,,0.01,meteohub,2013-06-11 16:49:00,
2013-06-11 12:55:00,75.9,67.1,29.89,NW,315,2.0,3.0,74,0.00,,,0.01,meteohub,2013-06-11 16:55:00,
2013-06-11 13:00:00,76.1,66.4,29.88,NW,315,2.0,3.0,72,0.00,,,0.01,meteohub,2013-06-11 17:00:00,
2013-06-11 13:05:00,76.3,66.6,29.88,West,270,2.0,5.0,72,0.00,,,0.01,meteohub,2013-06-11 17:05:00,
2013-06-11 13:10:00,76.5,67.1,29.88,North,0,2.0,5.0,73,0.00,,,0.01,meteohub,2013-06-11 17:10:00,
2013-06-11 13:15:00,76.8,67.1,29.88,North,0,2.0,4.0,72,0.00,,,0.01,meteohub,2013-06-11 17:15:00,
2013-06-11 13:21:00,76.6,66.9,29.88,SW,225,4.0,4.0,72,0.00,,,0.01,meteohub,2013-06-11 17:21:00,
2013-06-11 13:26:00,76.6,66.6,29.88,West,270,2.0,4.0,71,0.00,,,0.01,meteohub,2013-06-11 17:26:00,
2013-06-11 13:31:00,76.5,65.5,29.88,NW,315,3.0,4.0,69,0.00,,,0.01,meteohub,2013-06-11 17:31:00,
2013-06-11 13:37:00,76.6,66.2,29.88,North,0,2.0,4.0,70,0.00,,,0.01,meteohub,2013-06-11 17:37:00,
2013-06-11 13:42:00,76.6,66.6,29.87,NW,315,1.0,4.0,71,0.00,,,0.01,meteohub,2013-06-11 17:42:00,
2013-06-11 13:47:00,77.0,66.9,29.88,North,0,4.0,4.0,71,0.00,,,0.01,meteohub,2013-06-11 17:47:00,
2013-06-11 13:52:00,77.4,66.0,29.87,South,180,3.0,4.0,68,0.00,,,0.01,meteohub,2013-06-11 17:52:00,
2013-06-11 13:57:00,77.4,66.0,29.87,North,0,2.0,4.0,68,0.00,,,0.01,meteohub,2013-06-11 17:57:00,
2013-06-11 14:02:00,77.5,66.2,29.88,SE,135,2.0,4.0,68,0.00,,,0.01,meteohub,2013-06-11 18:02:00,
2013-06-11 14:08:00,77.9,66.6,29.87,North,0,2.0,4.0,68,0.00,,,0.01,meteohub,2013-06-11 18:08:00,
2013-06-11 14:13:00,77.9,66.0,29.87,South,180,4.0,4.0,67,0.00,,,0.01,meteohub,2013-06-11 18:13:00,
2013-06-11 14:18:00,77.9,66.6,29.87,NW,315,2.0,5.0,68,0.00,,,0.01,meteohub,2013-06-11 18:18:00,
2013-06-11 14:23:00,78.4,66.6,29.87,North,0,2.0,5.0,67,0.00,,,0.01,meteohub,2013-06-11 18:23:00,
2013-06-11 14:28:00,78.4,66.2,29.87,North,0,3.0,5.0,66,0.00,,,0.01,meteohub,2013-06-11 18:28:00,
2013-06-11 14:33:00,78.4,66.2,29.87,NE,45,2.0,3.0,66,0.00,,,0.01,meteohub,2013-06-11 18:33:00,
2013-06-11 14:39:00,78.8,66.0,29.87,North,0,2.0,3.0,65,0.00,,,0.01,meteohub,2013-06-11 18:39:00,
2013-06-11 14:44:00,78.8,65.7,29.86,SW,225,3.0,4.0,64,0.00,,,0.01,meteohub,2013-06-11 18:44:00,
2013-06-11 14:49:00,79.2,66.4,29.86,West,270,4.0,4.0,65,0.00,,,0.01,meteohub,2013-06-11 18:49:00,
2013-06-11 14:54:00,79.3,66.6,29.86,North,0,3.0,4.0,65,0.00,,,0.01,meteohub,2013-06-11 18:54:00,
2013-06-11 14:59:00,79.7,66.4,29.86,North,0,2.0,4.0,64,0.00,,,0.01,meteohub,2013-06-11 18:59:00,
2013-06-11 15:04:00,79.7,66.4,29.86,North,0,2.0,4.0,64,0.00,,,0.01,meteohub,2013-06-11 19:04:00,
2013-06-11 15:10:00,79.9,66.6,29.86,North,0,2.0,4.0,64,0.00,,,0.01,meteohub,2013-06-11 19:10:00,
2013-06-11 15:15:00,79.7,66.0,29.86,SW,225,4.0,4.0,63,0.00,,,0.01,meteohub,2013-06-11 19:15:00,
2013-06-11 15:20:00,79.5,65.8,29.85,North,0,2.0,4.0,63,0.00,,,0.01,meteohub,2013-06-11 19:20:00,
2013-06-11 15:25:00,79.9,66.2,29.86,North,0,2.0,4.0,63,0.00,,,0.01,meteohub,2013-06-11 19:25:00,
2013-06-11 15:30:00,80.1,65.8,29.86,West,270,2.0,4.0,62,0.00,,,0.01,meteohub,2013-06-11 19:30:00,
2013-06-11 15:35:00,79.5,65.3,29.86,SW,225,2.0,3.0,62,0.00,,,0.01,meteohub,2013-06-11 19:35:00,
2013-06-11 15:40:00,79.2,64.9,29.85,North,0,2.0,4.0,62,0.00,,,0.01,meteohub,2013-06-11 19:40:00,
2013-06-11 15:46:00,79.2,65.8,29.85,West,270,4.0,4.0,64,0.00,,,0.01,meteohub,2013-06-11 19:46:00,
2013-06-11 15:51:00,79.2,65.5,29.85,West,270,2.0,4.0,63,0.00,,,0.01,meteohub,2013-06-11 19:51:00,
2013-06-11 15:57:00,79.3,66.6,29.85,NW,315,0.0,4.0,65,0.00,,,0.01,meteohub,2013-06-11 19:57:00,
2013-06-11 16:02:00,79.3,66.9,29.85,West,270,0.0,4.0,66,0.00,,,0.01,meteohub,2013-06-11 20:02:00,
2013-06-11 16:07:00,79.3,66.9,29.85,West,270,0.0,2.0,66,0.00,,,0.01,meteohub,2013-06-11 20:07:00,
2013-06-11 16:12:00,79.3,66.6,29.85,SW,225,4.0,4.0,65,0.00,,,0.01,meteohub,2013-06-11 20:12:00,
2013-06-11 16:17:00,79.3,66.0,29.84,NW,315,2.0,4.0,64,0.00,,,0.01,meteohub,2013-06-11 20:17:00,
2013-06-11 16:23:00,79.2,65.8,29.85,NW,315,4.0,4.0,64,0.00,,,0.01,meteohub,2013-06-11 20:23:00,
2013-06-11 16:28:00,78.8,65.7,29.85,NW,315,2.0,4.0,64,0.00,,,0.01,meteohub,2013-06-11 20:28:00,
2013-06-11 16:33:00,78.8,66.0,29.84,North,0,2.0,5.0,65,0.00,,,0.01,meteohub,2013-06-11 20:33:00,
2013-06-11 16:38:00,78.6,66.4,29.85,NW,315,3.0,5.0,66,0.00,,,0.01,meteohub,2013-06-11 20:38:00,
2013-06-11 16:43:00,78.6,66.7,29.85,North,0,2.0,5.0,67,0.00,,,0.01,meteohub,2013-06-11 20:43:00,
2013-06-11 16:49:00,78.6,67.1,29.85,North,0,2.0,4.0,68,0.00,,,0.01,meteohub,2013-06-11 20:49:00,
2013-06-11 16:54:00,78.8,66.6,29.85,North,0,2.0,4.0,66,0.00,,,0.01,meteohub,2013-06-11 20:54:00,
2013-06-11 16:59:00,78.6,66.4,29.84,North,0,2.0,3.0,66,0.00,,,0.01,meteohub,2013-06-11 20:59:00,
2013-06-11 17:04:00,78.6,65.8,29.84,SW,225,2.0,3.0,65,0.00,,,0.01,meteohub,2013-06-11 21:04:00,
2013-06-11 17:09:00,79.0,65.8,29.83,SW,225,3.0,5.0,64,0.00,,,0.01,meteohub,2013-06-11 21:09:00,
2013-06-11 17:14:00,79.3,66.0,29.83,West,270,3.0,41.0,64,0.00,,,0.01,meteohub,2013-06-11 21:14:00,
2013-06-11 17:19:00,79.5,66.7,29.84,NE,45,2.0,41.0,65,0.00,,,0.01,meteohub,2013-06-11 21:19:00,
2013-06-11 17:25:00,79.3,66.6,29.84,NE,45,2.0,4.0,65,0.00,,,0.01,meteohub,2013-06-11 21:25:00,
2013-06-11 17:30:00,79.0,66.2,29.84,NE,45,2.0,4.0,65,0.00,,,0.01,meteohub,2013-06-11 21:30:00,
2013-06-11 17:35:00,78.6,67.1,29.84,NE,45,0.0,5.0,68,0.00,,,0.01,meteohub,2013-06-11 21:35:00,
2013-06-11 17:40:00,78.4,66.9,29.83,North,0,1.0,5.0,68,0.00,,,0.01,meteohub,2013-06-11 21:40:00,
2013-06-11 17:45:00,78.4,66.6,29.83,SW,225,2.0,4.0,67,0.00,,,0.01,meteohub,2013-06-11 21:45:00,
2013-06-11 17:51:00,78.4,66.6,29.84,South,180,2.0,4.0,67,0.00,,,0.01,meteohub,2013-06-11 21:51:00,
2013-06-11 17:56:00,78.4,66.2,29.83,SE,135,2.0,2.0,66,0.00,,,0.01,meteohub,2013-06-11 21:56:00,
2013-06-11 18:01:00,78.6,66.7,29.83,West,270,1.0,2.0,67,0.00,,,0.01,meteohub,2013-06-11 22:01:00,
2013-06-11 18:06:00,78.6,66.7,29.83,West,270,1.0,2.0,67,0.00,,,0.01,meteohub,2013-06-11 22:06:00,
2013-06-11 18:11:00,78.1,67.5,29.83,North,0,0.0,2.0,70,0.00,,,0.01,meteohub,2013-06-11 22:11:00,
2013-06-11 18:16:00,77.9,67.3,29.83,East,90,1.0,2.0,70,0.00,,,0.01,meteohub,2013-06-11 22:16:00,
2013-06-11 18:22:00,77.7,67.1,29.83,North,0,2.0,2.0,70,0.00,,,0.01,meteohub,2013-06-11 22:22:00,
2013-06-11 18:27:00,77.5,66.9,29.82,North,0,0.0,2.0,70,0.00,,,0.01,meteohub,2013-06-11 22:27:00,
2013-06-11 18:32:00,77.5,67.5,29.82,North,0,0.0,2.0,71,0.00,,,0.01,meteohub,2013-06-11 22:32:00,
2013-06-11 18:37:00,77.5,67.8,29.82,North,0,0.0,2.0,72,0.00,,,0.01,meteohub,2013-06-11 22:37:00,
2013-06-11 18:42:00,77.5,68.2,29.81,SE,135,0.0,1.0,73,0.00,,,0.01,meteohub,2013-06-11 22:42:00,
2013-06-11 18:47:00,77.5,68.2,29.81,East,90,0.0,1.0,73,0.00,,,0.01,meteohub,2013-06-11 22:47:00,
2013-06-11 18:52:00,77.5,68.2,29.81,North,0,0.0,0.0,73,0.00,,,0.01,meteohub,2013-06-11 22:52:00,
2013-06-11 18:57:00,77.5,68.2,29.81,North,0,0.0,0.0,73,0.00,,,0.01,meteohub,2013-06-11 22:57:00,
2013-06-11 19:02:00,77.5,68.5,29.81,North,0,0.0,0.0,74,0.00,,,0.01,meteohub,2013-06-11 23:02:00,
2013-06-11 19:07:00,77.5,68.2,29.82,North,0,0.0,0.0,73,0.00,,,0.01,meteohub,2013-06-11 23:07:00,
2013-06-11 19:12:00,77.4,68.0,29.81,North,0,0.0,0.0,73,0.00,,,0.01,meteohub,2013-06-11 23:12:00,
2013-06-11 19:17:00,77.4,68.9,29.82,SW,225,0.0,0.0,75,0.00,,,0.01,meteohub,2013-06-11 23:17:00,
2013-06-11 19:23:00,77.4,69.3,29.82,SW,225,0.0,0.0,76,0.00,,,0.01,meteohub,2013-06-11 23:23:00,
2013-06-11 19:28:00,77.2,68.7,29.82,SW,225,0.0,0.0,75,0.00,,,0.01,meteohub,2013-06-11 23:28:00,
2013-06-11 19:33:00,77.0,68.9,29.82,SW,225,0.0,0.0,76,0.00,,,0.01,meteohub,2013-06-11 23:33:00,
2013-06-11 19:38:00,76.8,69.4,29.82,SW,225,0.0,0.0,78,0.00,,,0.01,meteohub,2013-06-11 23:38:00,
2013-06-11 19:43:00,76.6,68.9,29.82,SW,225,0.0,0.0,77,0.00,,,0.01,meteohub,2013-06-11 23:43:00,
2013-06-11 19:49:00,76.5,69.1,29.82,SW,225,0.0,0.0,78,0.00,,,0.01,meteohub,2013-06-11 23:49:00,
2013-06-11 19:54:00,76.1,69.1,29.82,NE,45,0.0,0.0,79,0.00,,,0.01,meteohub,2013-06-11 23:54:00,
2013-06-11 19:59:00,75.9,68.9,29.82,NE,45,0.0,0.0,79,0.00,,,0.01,meteohub,2013-06-11 23:59:00,
2013-06-11 20:04:00,75.9,68.9,29.82,NE,45,0.0,0.0,79,0.00,,,0.01,meteohub,2013-06-12 00:04:00,
2013-06-11 20:09:00,75.9,69.3,29.81,South,180,0.0,0.0,80,0.00,,,0.01,meteohub,2013-06-12 00:09:00,
2013-06-11 20:14:00,75.9,69.6,29.82,South,180,0.0,0.0,81,0.00,,,0.01,meteohub,2013-06-12 00:14:00,
2013-06-11 20:19:00,75.7,69.4,29.82,North,0,0.0,0.0,81,0.00,,,0.01,meteohub,2013-06-12 00:19:00,
2013-06-11 20:24:00,75.4,69.1,29.83,North,0,0.0,0.0,81,0.00,,,0.01,meteohub,2013-06-12 00:24:00,
2013-06-11 20:30:00,75.2,68.5,29.82,North,0,0.0,0.0,80,0.00,,,0.01,meteohub,2013-06-12 00:30:00,
2013-06-11 20:35:00,75.0,69.1,29.83,North,0,0.0,0.0,82,0.00,,,0.01,meteohub,2013-06-12 00:35:00,
2013-06-11 20:40:00,74.8,69.3,29.83,North,0,0.0,0.0,83,0.00,,,0.01,meteohub,2013-06-12 00:40:00,
2013-06-11 20:45:00,74.7,69.8,29.83,North,0,0.0,0.0,85,0.00,,,0.01,meteohub,2013-06-12 00:45:00,
2013-06-11 20:50:00,74.3,69.4,29.83,North,0,0.0,0.0,85,0.00,,,0.01,meteohub,2013-06-12 00:50:00,
2013-06-11 20:55:00,74.1,69.6,29.83,North,0,0.0,0.0,86,0.00,,,0.01,meteohub,2013-06-12 00:55:00,
2013-06-11 21:00:00,73.8,69.6,29.83,North,0,0.0,0.0,87,0.00,,,0.01,meteohub,2013-06-12 01:00:00,
2013-06-11 21:05:00,73.6,69.4,29.83,North,0,0.0,0.0,87,0.00,,,0.01,meteohub,2013-06-12 01:05:00,
2013-06-11 21:11:00,73.4,69.3,29.83,North,0,0.0,0.0,87,0.00,,,0.01,meteohub,2013-06-12 01:11:00,
2013-06-11 21:16:00,73.0,68.5,29.83,North,0,0.0,0.0,86,0.00,,,0.01,meteohub,2013-06-12 01:16:00,
2013-06-11 21:21:00,72.7,68.2,29.83,North,0,0.0,0.0,86,0.00,,,0.01,meteohub,2013-06-12 01:21:00,
2013-06-11 21:26:00,72.3,67.8,29.83,North,0,0.0,0.0,86,0.00,,,0.01,meteohub,2013-06-12 01:26:00,
2013-06-11 21:32:00,72.0,67.8,29.83,North,0,0.0,0.0,87,0.00,,,0.01,meteohub,2013-06-12 01:32:00,
2013-06-11 21:37:00,71.8,67.6,29.83,North,0,0.0,0.0,87,0.00,,,0.01,meteohub,2013-06-12 01:37:00,
2013-06-11 21:42:00,71.2,67.5,29.83,North,0,0.0,0.0,88,0.00,,,0.01,meteohub,2013-06-12 01:42:00,
2013-06-11 21:47:00,70.9,67.1,29.83,North,0,0.0,0.0,88,0.00,,,0.01,meteohub,2013-06-12 01:47:00,
2013-06-11 21:52:00,70.5,66.7,29.84,North,0,0.0,0.0,88,0.00,,,0.01,meteohub,2013-06-12 01:52:00,
2013-06-11 21:57:00,70.3,66.9,29.85,North,0,0.0,0.0,89,0.00,,,0.01,meteohub,2013-06-12 01:57:00,
2013-06-11 22:02:00,70.2,66.7,29.85,North,0,0.0,0.0,89,0.00,,,0.01,meteohub,2013-06-12 02:02:00,
2013-06-11 22:07:00,70.0,66.9,29.85,North,0,0.0,0.0,90,0.00,,,0.01,meteohub,2013-06-12 02:07:00,
2013-06-11 22:12:00,70.0,67.3,29.85,North,0,0.0,0.0,91,0.00,,,0.01,meteohub,2013-06-12 02:12:00,
2013-06-11 22:17:00,70.0,67.3,29.86,North,0,0.0,0.0,91,0.00,,,0.01,meteohub,2013-06-12 02:17:00,
2013-06-11 22:23:00,70.0,67.5,29.85,North,0,0.0,0.0,92,0.00,,,0.01,meteohub,2013-06-12 02:23:00,
2013-06-11 22:28:00,70.0,67.5,29.86,North,0,0.0,0.0,92,0.00,,,0.01,meteohub,2013-06-12 02:28:00,
2013-06-11 22:33:00,69.8,67.3,29.86,North,0,0.0,0.0,92,0.00,,,0.01,meteohub,2013-06-12 02:33:00,
2013-06-11 22:38:00,69.6,67.5,29.86,North,0,0.0,0.0,93,0.00,,,0.01,meteohub,2013-06-12 02:38:00,
2013-06-11 22:44:00,69.4,67.3,29.85,North,0,0.0,0.0,93,0.00,,,0.01,meteohub,2013-06-12 02:44:00,
2013-06-11 22:49:00,69.3,67.1,29.86,North,0,0.0,0.0,93,0.00,,,0.01,meteohub,2013-06-12 02:49:00,
2013-06-11 22:54:00,68.9,66.7,29.86,NW,315,0.0,0.0,93,0.00,,,0.01,meteohub,2013-06-12 02:54:00,
2013-06-11 22:59:00,68.7,66.6,29.86,NW,315,0.0,0.0,93,0.00,,,0.01,meteohub,2013-06-12 02:59:00,
2013-06-11 23:04:00,68.7,66.9,29.86,NW,315,0.0,0.0,94,0.00,,,0.01,meteohub,2013-06-12 03:04:00,
2013-06-11 23:09:00,68.5,66.7,29.86,NNW,338,0.0,0.0,94,0.00,,,0.01,meteohub,2013-06-12 03:09:00,
2013-06-11 23:14:00,68.4,66.2,29.86,NNW,338,0.0,0.0,93,0.00,,,0.01,meteohub,2013-06-12 03:14:00,
2013-06-11 23:20:00,68.2,66.0,29.86,NNW,338,0.0,0.0,93,0.00,,,0.01,meteohub,2013-06-12 03:20:00,
2013-06-11 23:25:00,68.0,65.8,29.86,NW,315,0.0,0.0,93,0.00,,,0.01,meteohub,2013-06-12 03:25:00,
2013-06-11 23:30:00,67.8,66.0,29.86,NW,315,0.0,0.0,94,0.00,,,0.01,meteohub,2013-06-12 03:30:00,
2013-06-11 23:35:00,67.5,65.7,29.86,NW,315,0.0,0.0,94,0.00,,,0.01,meteohub,2013-06-12 03:35:00,
2013-06-11 23:40:00,67.3,65.5,29.87,NW,315,0.0,0.0,94,0.00,,,0.01,meteohub,2013-06-12 03:40:00,
2013-06-11 23:45:00,66.9,65.1,29.86,NW,315,0.0,0.0,94,0.00,,,0.01,meteohub,2013-06-12 03:45:00,
2013-06-11 23:51:00,66.7,64.9,29.86,NNW,338,0.0,0.0,94,0.00,,,0.01,meteohub,2013-06-12 03:51:00,
2013-06-11 23:56:00,66.4,64.6,29.86,North,0,0.0,0.0,94,0.00,,,0.01,meteohub,2013-06-12 03:56:00,